Bonlee, North Carolina
Current Conditions -  °F | °C
As of 4:35 PM on Wednesday 26 Nov 2014 (Local Time) from K5W8 Reporting Station
Overcast Overcast  
Wind Chill: 43°   Ceiling: 1800
Heat Index: 43°   Visibility: 10mi
Dew Point: 40°   Wind: 0mph
Humidity: 90%   Direction: NA
Pressure: 30.01"   Gusts: NA
Location:  35.65°N, 79.41°W
Report Text: K5W8 262135Z AUTO 00000KT 10SM OVC018 06/05 A3001 RMK AO2 T00620046
Loading
Personal Weather Stations






























Interactive Weather Map New forecast layout! Learn more

10-Day Weather Forecast

Advertisements
Track Severe Weather on mobile